createdAt,value
2022-09-30T00:01:02.955Z,9.53
2022-09-30T00:03:30.526Z,9.54
2022-09-30T00:06:03.201Z,9.52
2022-09-30T00:08:33.269Z,9.50
2022-09-30T00:11:01.708Z,9.47
2022-09-30T00:13:29.220Z,9.45
2022-09-30T00:15:56.771Z,9.44
2022-09-30T00:18:24.234Z,9.42
2022-09-30T00:20:53.114Z,9.41
2022-09-30T00:23:22.211Z,9.41
2022-09-30T00:25:49.866Z,9.39
2022-09-30T00:28:17.518Z,9.39
2022-09-30T00:30:44.982Z,9.37
2022-09-30T00:33:12.480Z,9.38
2022-09-30T00:35:40.178Z,9.36
2022-09-30T00:38:07.703Z,9.36
2022-09-30T00:40:38.632Z,9.34
2022-09-30T00:43:07.039Z,9.32
2022-09-30T00:45:34.512Z,9.31
2022-09-30T00:48:03.223Z,9.31
2022-09-30T00:50:33.528Z,9.28
2022-09-30T00:53:03.264Z,9.27
2022-09-30T00:55:32.500Z,9.26
2022-09-30T00:58:01.386Z,9.23
2022-09-30T01:00:28.909Z,9.22
2022-09-30T01:02:56.443Z,9.21
2022-09-30T01:05:24.232Z,9.18
2022-09-30T01:07:51.770Z,9.17
2022-09-30T01:10:19.268Z,9.17
2022-09-30T01:12:46.732Z,9.15
2022-09-30T01:15:15.708Z,9.14
2022-09-30T01:17:46.973Z,9.14
2022-09-30T01:20:21.793Z,9.12
2022-09-30T01:22:50.284Z,9.10
2022-09-30T01:25:27.530Z,9.09
2022-09-30T01:28:00.709Z,9.07
2022-09-30T01:30:38.222Z,9.05
2022-09-30T01:33:18.154Z,9.03
2022-09-30T01:35:51.096Z,9.01
2022-09-30T01:38:19.834Z,9.00
2022-09-30T01:40:48.741Z,9.00
2022-09-30T01:43:19.684Z,9.00
2022-09-30T01:45:50.091Z,9.00
2022-09-30T01:48:18.876Z,8.98
2022-09-30T01:50:47.873Z,8.95
2022-09-30T01:53:16.825Z,8.90
2022-09-30T01:55:46.768Z,8.87
2022-09-30T01:58:15.461Z,8.85
2022-09-30T02:00:43.568Z,8.82
2022-09-30T02:03:12.780Z,8.81
2022-09-30T02:05:41.626Z,8.79
2022-09-30T02:08:10.464Z,8.77
2022-09-30T02:10:40.552Z,8.73
2022-09-30T02:13:10.710Z,8.71
2022-09-30T02:15:40.674Z,8.70
2022-09-30T02:18:09.501Z,8.69
2022-09-30T02:20:38.590Z,8.67
2022-09-30T02:23:07.357Z,8.65
2022-09-30T02:25:35.398Z,8.64
2022-09-30T02:28:05.227Z,8.61
2022-09-30T02:30:33.206Z,8.61
2022-09-30T02:33:01.042Z,8.60
2022-09-30T02:35:30.031Z,8.59
2022-09-30T02:37:59.425Z,8.56
2022-09-30T02:40:27.880Z,8.50
2022-09-30T02:42:55.383Z,8.45
2022-09-30T02:45:23.189Z,8.42
2022-09-30T02:47:55.405Z,8.41
2022-09-30T02:50:24.461Z,8.38
2022-09-30T02:52:55.482Z,8.37
2022-09-30T02:55:25.385Z,8.35
2022-09-30T02:57:55.682Z,8.32
2022-09-30T03:00:23.979Z,8.31
2022-09-30T03:02:51.920Z,8.27
2022-09-30T03:05:19.763Z,8.23
2022-09-30T03:07:47.298Z,8.21
2022-09-30T03:10:15.194Z,8.19
2022-09-30T03:12:46.619Z,8.18
2022-09-30T03:15:18.077Z,8.18
2022-09-30T03:17:58.270Z,8.18
2022-09-30T03:20:36.500Z,8.18
2022-09-30T03:23:10.802Z,8.16
2022-09-30T03:25:40.192Z,8.14
2022-09-30T03:28:11.998Z,8.09
2022-09-30T03:30:43.414Z,8.08
2022-09-30T03:33:11.348Z,8.06
2022-09-30T03:35:42.496Z,8.04
2022-09-30T03:38:10.878Z,8.04
2022-09-30T03:40:38.973Z,8.03
2022-09-30T03:43:07.142Z,8.03
2022-09-30T03:45:36.907Z,8.00
2022-09-30T03:48:04.866Z,7.96
2022-09-30T03:50:32.378Z,7.95
2022-09-30T03:52:59.833Z,7.92
2022-09-30T03:55:27.588Z,7.91
2022-09-30T03:57:55.040Z,7.90
2022-09-30T04:00:22.560Z,7.90
2022-09-30T04:02:55.825Z,7.87
2022-09-30T04:05:25.315Z,7.87
2022-09-30T04:07:52.770Z,7.84
2022-09-30T04:10:20.244Z,7.83
2022-09-30T04:12:47.745Z,7.80
2022-09-30T04:15:15.283Z,7.81
2022-09-30T04:17:43.308Z,7.81
2022-09-30T04:20:12.749Z,7.78
2022-09-30T04:22:40.264Z,7.76
2022-09-30T04:25:08.814Z,7.76
2022-09-30T04:27:36.384Z,7.75
2022-09-30T04:30:03.884Z,7.74
2022-09-30T04:32:31.347Z,7.72
2022-09-30T04:34:58.811Z,7.71
2022-09-30T04:37:27.599Z,7.70
2022-09-30T04:39:54.993Z,7.72
2022-09-30T04:42:22.471Z,7.74
2022-09-30T04:44:49.847Z,7.74
2022-09-30T04:47:17.345Z,7.75
2022-09-30T04:49:44.782Z,7.76
2022-09-30T04:52:12.279Z,7.76
2022-09-30T04:54:41.063Z,7.75
2022-09-30T04:57:08.978Z,7.74
2022-09-30T04:59:36.927Z,7.74
2022-09-30T05:02:05.429Z,7.74
2022-09-30T05:04:33.814Z,7.76
2022-09-30T05:07:01.769Z,7.76
2022-09-30T05:09:29.226Z,7.74
2022-09-30T05:11:58.108Z,7.73
2022-09-30T05:14:25.561Z,7.72
2022-09-30T05:16:53.026Z,7.71
2022-09-30T05:19:20.577Z,7.70
2022-09-30T05:21:48.100Z,7.70
2022-09-30T05:24:15.876Z,7.70
2022-09-30T05:26:43.344Z,7.70
2022-09-30T05:29:12.263Z,7.70
2022-09-30T05:31:39.951Z,7.72
2022-09-30T05:34:07.515Z,7.71
2022-09-30T05:36:35.038Z,7.71
2022-09-30T05:39:02.501Z,7.70
2022-09-30T05:41:29.967Z,7.69
2022-09-30T05:44:01.225Z,7.67
2022-09-30T05:46:30.141Z,7.66
2022-09-30T05:48:57.648Z,7.63
2022-09-30T05:51:25.112Z,7.61
2022-09-30T05:53:52.752Z,7.59
2022-09-30T05:56:20.230Z,7.59
2022-09-30T05:58:47.720Z,7.59
2022-09-30T06:01:16.351Z,7.60
2022-09-30T06:03:45.457Z,7.61
2022-09-30T06:06:13.120Z,7.62
2022-09-30T06:08:41.321Z,7.62
2022-09-30T06:11:11.877Z,7.62
2022-09-30T06:13:39.691Z,7.64
2022-09-30T06:16:07.873Z,7.65
2022-09-30T06:18:35.431Z,7.66
2022-09-30T06:21:05.236Z,7.68
2022-09-30T06:23:35.005Z,7.71
2022-09-30T06:26:02.796Z,7.72
2022-09-30T06:28:30.217Z,7.73
2022-09-30T06:30:57.745Z,7.75
2022-09-30T06:33:25.218Z,7.78
2022-09-30T06:35:52.632Z,7.79
2022-09-30T06:38:22.715Z,7.81
2022-09-30T06:40:50.453Z,7.83
2022-09-30T06:43:18.042Z,7.84
2022-09-30T06:45:46.192Z,7.85
2022-09-30T06:48:13.788Z,7.86
2022-09-30T06:50:44.228Z,7.87
2022-09-30T06:53:14.832Z,7.89
2022-09-30T06:55:43.666Z,7.93
2022-09-30T06:58:14.558Z,7.97
2022-09-30T07:00:42.178Z,8.00
2022-09-30T07:03:11.515Z,8.03
2022-09-30T07:05:39.026Z,8.08
2022-09-30T07:08:09.032Z,8.12
2022-09-30T07:10:36.549Z,8.16
2022-09-30T07:13:05.376Z,8.17
2022-09-30T07:15:32.829Z,8.23
2022-09-30T07:18:00.649Z,8.26
2022-09-30T07:20:28.164Z,8.30
2022-09-30T07:22:55.576Z,8.32
2022-09-30T07:25:23.083Z,8.37
2022-09-30T07:27:50.543Z,8.40
2022-09-30T07:30:26.816Z,8.44
2022-09-30T07:32:54.834Z,8.48
2022-09-30T07:35:22.465Z,8.52
2022-09-30T07:37:50.422Z,8.59
2022-09-30T07:40:17.925Z,8.64
2022-09-30T07:42:45.884Z,8.71
2022-09-30T07:45:15.950Z,8.75
2022-09-30T07:47:46.636Z,8.83
2022-09-30T07:50:17.422Z,8.89
2022-09-30T07:52:44.914Z,8.97
2022-09-30T07:55:12.480Z,9.04
2022-09-30T07:57:39.918Z,9.10
2022-09-30T08:00:29.847Z,9.19
2022-09-30T08:02:57.064Z,9.28
2022-09-30T08:05:24.601Z,9.34
2022-09-30T08:07:52.082Z,9.41
2022-09-30T08:12:48.017Z,9.52
2022-09-30T08:15:15.559Z,9.60
2022-09-30T08:17:43.030Z,9.67
2022-09-30T08:20:13.790Z,9.72
2022-09-30T08:22:42.490Z,9.77
2022-09-30T08:25:10.209Z,9.85
2022-09-30T08:27:37.916Z,9.95
2022-09-30T08:30:05.895Z,10.03
2022-09-30T08:32:33.452Z,10.12
2022-09-30T08:35:00.887Z,10.20
2022-09-30T08:37:29.743Z,10.27
2022-09-30T08:39:57.253Z,10.35
2022-09-30T08:42:41.416Z,10.38
2022-09-30T08:45:15.778Z,10.47
2022-09-30T08:47:45.066Z,10.55
2022-09-30T08:50:16.248Z,10.67
2022-09-30T08:52:49.124Z,10.76
2022-09-30T08:55:17.691Z,10.84
2022-09-30T08:57:47.490Z,10.92
2022-09-30T09:00:16.196Z,11.01
2022-09-30T09:02:45.353Z,11.08
2022-09-30T09:05:14.694Z,11.13
2022-09-30T09:07:43.660Z,11.21
2022-09-30T09:10:18.025Z,11.29
2022-09-30T09:12:47.310Z,11.38
2022-09-30T09:15:17.915Z,11.46
2022-09-30T09:18:11.309Z,11.53
2022-09-30T09:20:41.882Z,11.63
2022-09-30T09:23:10.109Z,11.70
2022-09-30T09:25:40.246Z,11.75
2022-09-30T09:28:10.980Z,11.83
2022-09-30T09:30:41.764Z,11.90
2022-09-30T09:33:12.366Z,11.96
2022-09-30T09:35:41.757Z,12.02
2022-09-30T09:38:26.799Z,12.06
2022-09-30T09:40:58.933Z,12.11
2022-09-30T09:43:30.515Z,12.19
2022-09-30T09:46:00.378Z,12.21
2022-09-30T09:48:29.176Z,12.25
2022-09-30T09:50:58.889Z,12.32
2022-09-30T09:53:39.607Z,12.40
2022-09-30T09:56:18.827Z,12.45
2022-09-30T09:59:05.769Z,12.53
2022-09-30T10:01:33.639Z,12.65
2022-09-30T10:04:09.617Z,12.72
2022-09-30T10:06:43.935Z,12.79
2022-09-30T10:09:16.200Z,12.88
2022-09-30T10:11:45.060Z,12.97
2022-09-30T10:14:12.553Z,12.97
2022-09-30T10:16:40.080Z,12.97
2022-09-30T10:19:24.329Z,12.99
2022-09-30T10:21:54.033Z,13.05
2022-09-30T10:24:28.042Z,13.14
2022-09-30T10:26:56.866Z,13.20
2022-09-30T10:29:28.521Z,13.23
2022-09-30T10:31:59.103Z,13.22
2022-09-30T10:34:28.163Z,13.23
2022-09-30T10:36:55.786Z,13.23
2022-09-30T10:39:24.762Z,13.31
2022-09-30T10:41:52.364Z,13.42
2022-09-30T10:44:21.966Z,13.47
2022-09-30T10:46:50.434Z,13.50
2022-09-30T10:49:25.950Z,13.52
2022-09-30T10:51:53.435Z,13.52
2022-09-30T10:54:38.145Z,13.53
2022-09-30T10:57:05.529Z,13.60
2022-09-30T10:59:35.171Z,13.66
2022-09-30T11:02:10.768Z,13.75
2022-09-30T11:04:38.832Z,13.81
2022-09-30T11:07:11.638Z,13.90
2022-09-30T11:09:39.876Z,14.02
2022-09-30T11:12:11.104Z,14.11
2022-09-30T11:14:43.781Z,14.22
2022-09-30T11:17:12.367Z,14.30
2022-09-30T11:19:40.856Z,14.34
2022-09-30T11:22:18.741Z,14.39
2022-09-30T11:24:46.657Z,14.40
2022-09-30T11:27:16.754Z,14.39
2022-09-30T11:29:48.854Z,14.40
2022-09-30T11:32:19.599Z,14.45
2022-09-30T11:34:49.792Z,14.56
2022-09-30T11:37:18.487Z,14.65
2022-09-30T11:39:52.351Z,14.72
2022-09-30T11:42:21.034Z,14.83
2022-09-30T11:44:49.901Z,14.86
2022-09-30T11:47:24.427Z,14.87
2022-09-30T11:49:55.878Z,14.86
2022-09-30T11:52:24.949Z,14.85
2022-09-30T11:55:02.289Z,14.86
2022-09-30T11:57:31.180Z,14.89
2022-09-30T12:00:00.316Z,14.89
2022-09-30T12:02:31.817Z,14.96
2022-09-30T12:05:00.528Z,14.97
2022-09-30T12:07:31.460Z,14.98
2022-09-30T12:09:59.157Z,14.97
2022-09-30T12:12:26.669Z,14.95
2022-09-30T12:14:54.904Z,14.94
2022-09-30T12:17:26.984Z,14.98
2022-09-30T12:19:55.435Z,15.00
2022-09-30T12:22:23.404Z,15.03
2022-09-30T12:24:50.822Z,15.05
2022-09-30T12:27:19.923Z,15.05
2022-09-30T12:30:07.483Z,15.00
2022-09-30T12:32:52.794Z,14.94
2022-09-30T12:35:30.148Z,14.89
2022-09-30T12:38:01.039Z,14.88
2022-09-30T12:40:33.036Z,14.88
2022-09-30T12:43:16.455Z,14.85
2022-09-30T12:45:54.946Z,14.78
2022-09-30T12:48:24.138Z,14.78
2022-09-30T12:50:53.061Z,14.82
2022-09-30T12:53:21.793Z,14.84
2022-09-30T12:55:49.293Z,14.83
2022-09-30T12:58:19.957Z,14.78
2022-09-30T13:00:58.749Z,14.73
2022-09-30T13:03:27.663Z,14.68
2022-09-30T13:05:57.736Z,14.64
2022-09-30T13:08:51.944Z,14.60
2022-09-30T13:11:37.326Z,14.62
2022-09-30T13:14:13.623Z,14.62
2022-09-30T13:17:01.115Z,14.67
2022-09-30T13:19:36.156Z,14.74
2022-09-30T13:22:24.275Z,14.75
2022-09-30T13:25:04.553Z,14.78
2022-09-30T13:27:34.031Z,14.80
2022-09-30T13:30:01.630Z,14.82
2022-09-30T13:32:33.732Z,14.83
2022-09-30T13:35:02.538Z,14.83
2022-09-30T13:37:40.107Z,14.84
2022-09-30T13:40:28.849Z,14.83
2022-09-30T13:43:08.929Z,14.80
2022-09-30T13:45:39.415Z,14.78
2022-09-30T13:48:11.163Z,14.76
2022-09-30T13:50:42.402Z,14.77
2022-09-30T13:53:13.599Z,14.76
2022-09-30T13:55:42.368Z,14.78
2022-09-30T13:58:16.514Z,14.81
2022-09-30T14:00:47.563Z,14.81
2022-09-30T14:03:18.041Z,14.85
2022-09-30T14:05:49.451Z,14.83
2022-09-30T14:08:31.748Z,14.82
2022-09-30T14:11:02.719Z,14.81
2022-09-30T14:13:34.226Z,14.86
2022-09-30T14:16:16.597Z,14.94
2022-09-30T14:18:54.454Z,15.01
2022-09-30T14:21:32.126Z,15.10
2022-09-30T14:24:00.216Z,15.14
2022-09-30T14:26:34.133Z,15.26
2022-09-30T14:29:02.965Z,15.33
2022-09-30T14:31:32.284Z,15.35
2022-09-30T14:33:59.730Z,15.36
2022-09-30T14:36:27.162Z,15.38
2022-09-30T14:38:58.111Z,15.37
2022-09-30T14:41:25.595Z,15.36
2022-09-30T14:43:54.086Z,15.36
2022-09-30T14:46:26.693Z,15.34
2022-09-30T14:48:54.279Z,15.27
2022-09-30T14:51:23.821Z,15.17
2022-09-30T14:53:56.663Z,15.09
2022-09-30T14:56:27.271Z,15.02
2022-09-30T14:58:57.702Z,15.00
2022-09-30T15:01:26.186Z,15.01
2022-09-30T15:03:55.463Z,15.00
2022-09-30T15:06:23.559Z,14.98
2022-09-30T15:08:51.160Z,14.97
2022-09-30T15:11:20.370Z,14.97
2022-09-30T15:13:48.304Z,14.95
2022-09-30T15:16:23.404Z,14.93
2022-09-30T15:18:50.957Z,14.93
2022-09-30T15:21:18.443Z,14.92
2022-09-30T15:23:48.182Z,14.91
2022-09-30T15:26:15.649Z,14.90
2022-09-30T15:28:44.486Z,14.91
2022-09-30T15:31:16.026Z,14.88
2022-09-30T15:33:43.450Z,14.86
2022-09-30T15:36:14.453Z,14.83
2022-09-30T15:38:42.089Z,14.80
2022-09-30T15:41:10.078Z,14.74
2022-09-30T15:43:39.248Z,14.72
2022-09-30T15:46:28.061Z,14.69
2022-09-30T15:48:57.673Z,14.63
2022-09-30T15:51:26.606Z,14.60
2022-09-30T15:53:54.143Z,14.56
2022-09-30T15:56:25.618Z,14.52
2022-09-30T15:58:56.661Z,14.46
2022-09-30T16:01:25.113Z,14.44
2022-09-30T16:03:54.711Z,14.41
2022-09-30T16:06:27.886Z,14.38
2022-09-30T16:09:01.481Z,14.37
2022-09-30T16:11:30.152Z,14.35
2022-09-30T16:13:57.936Z,14.35
2022-09-30T16:16:25.869Z,14.35
2022-09-30T16:18:54.102Z,14.34
2022-09-30T16:21:51.874Z,14.33
2022-09-30T16:24:37.733Z,14.30
2022-09-30T16:27:20.395Z,14.29
2022-09-30T16:29:49.634Z,14.27
2022-09-30T16:32:17.066Z,14.26
2022-09-30T16:34:44.525Z,14.23
2022-09-30T16:37:12.459Z,14.20
2022-09-30T16:39:39.946Z,14.18
2022-09-30T16:42:07.395Z,14.14
2022-09-30T16:44:37.833Z,14.11
2022-09-30T16:47:05.267Z,14.08
2022-09-30T16:49:34.612Z,14.05
2022-09-30T16:52:02.412Z,14.03
2022-09-30T16:54:29.815Z,13.99
2022-09-30T16:58:54.728Z,14.58
2022-09-30T17:05:40.913Z,14.85
2022-09-30T17:08:11.097Z,14.97
2022-09-30T17:10:38.699Z,15.02
2022-09-30T17:13:06.299Z,15.07
2022-09-30T17:15:37.279Z,15.12
2022-09-30T17:18:56.463Z,15.14
2022-09-30T17:21:26.982Z,15.16
2022-09-30T17:23:55.789Z,15.16
2022-09-30T17:26:23.960Z,15.15
2022-09-30T17:28:51.674Z,15.14
2022-09-30T17:31:19.375Z,15.15
2022-09-30T17:33:47.021Z,15.16
2022-09-30T17:36:16.115Z,15.09
2022-09-30T17:38:43.705Z,15.10
2022-09-30T17:41:31.707Z,15.05
2022-09-30T17:44:02.552Z,15.05
2022-09-30T17:46:41.365Z,15.02
2022-09-30T17:49:09.541Z,15.01
2022-09-30T17:51:39.119Z,15.01
2022-09-30T17:54:07.774Z,14.99
2022-09-30T17:56:36.550Z,14.98
2022-09-30T17:59:04.581Z,14.96
2022-09-30T18:01:32.462Z,14.95
2022-09-30T18:04:01.002Z,14.94
2022-09-30T18:06:30.060Z,14.89
2022-09-30T18:09:00.423Z,14.89
2022-09-30T18:11:28.998Z,14.86
2022-09-30T18:13:58.039Z,14.85
2022-09-30T18:16:30.070Z,14.86
2022-09-30T18:18:58.171Z,14.85
2022-09-30T18:21:26.001Z,14.84
2022-09-30T18:23:54.184Z,14.83
2022-09-30T18:26:24.076Z,14.82
2022-09-30T18:28:52.601Z,14.79
2022-09-30T18:31:28.291Z,14.79
2022-09-30T18:33:56.169Z,14.70
2022-09-30T18:36:24.342Z,14.73
2022-09-30T18:38:52.045Z,14.71
2022-09-30T18:41:19.726Z,14.69
2022-09-30T18:43:51.432Z,14.66
2022-09-30T18:46:20.565Z,14.65
2022-09-30T18:48:49.780Z,14.66
2022-09-30T18:51:18.801Z,14.64
2022-09-30T18:53:46.495Z,14.63
2022-09-30T18:56:14.072Z,14.62
2022-09-30T18:58:41.895Z,14.60
2022-09-30T19:01:11.136Z,14.57
2022-09-30T19:03:38.867Z,14.58
2022-09-30T19:06:08.459Z,14.53
2022-09-30T19:08:36.112Z,14.52
2022-09-30T19:11:11.997Z,14.49
2022-09-30T19:13:40.829Z,14.44
2022-09-30T19:16:10.983Z,14.44
2022-09-30T19:18:39.184Z,14.43
2022-09-30T19:21:09.992Z,14.41
2022-09-30T19:23:37.788Z,14.40
2022-09-30T19:26:06.112Z,14.39
2022-09-30T19:28:37.810Z,14.36
2022-09-30T19:31:12.273Z,14.38
2022-09-30T19:33:48.758Z,14.38
2022-09-30T19:36:23.254Z,14.39
2022-09-30T19:38:53.390Z,14.38
2022-09-30T19:41:24.602Z,14.36
2022-09-30T19:43:52.396Z,14.34
2022-09-30T19:46:21.642Z,14.33
2022-09-30T19:48:49.221Z,14.30
2022-09-30T19:51:18.030Z,14.31
2022-09-30T19:54:01.300Z,14.32
2022-09-30T19:56:33.526Z,14.31
2022-09-30T19:59:01.204Z,14.31
2022-09-30T20:01:31.227Z,14.29
2022-09-30T20:04:00.463Z,14.27
2022-09-30T20:06:28.667Z,14.29
2022-09-30T20:08:59.023Z,14.32
2022-09-30T20:11:28.764Z,14.34
2022-09-30T20:14:11.800Z,14.35
2022-09-30T20:16:41.361Z,14.38
2022-09-30T20:19:09.474Z,14.39
2022-09-30T20:21:37.922Z,14.38
2022-09-30T20:24:05.918Z,14.39
2022-09-30T20:26:34.284Z,14.35
2022-09-30T20:29:02.289Z,14.39
2022-09-30T20:31:30.410Z,14.39
2022-09-30T20:34:00.746Z,14.39
2022-09-30T20:36:29.379Z,14.38
2022-09-30T20:38:59.079Z,14.42
2022-09-30T20:41:27.004Z,14.41
2022-09-30T20:43:54.827Z,14.38
2022-09-30T20:46:23.583Z,14.39
2022-09-30T20:48:51.485Z,14.39
2022-09-30T20:51:21.689Z,14.39
2022-09-30T20:53:51.963Z,14.37
2022-09-30T20:56:22.938Z,14.38
2022-09-30T20:58:53.077Z,14.37
2022-09-30T21:01:21.958Z,14.39
2022-09-30T21:03:51.668Z,14.39
2022-09-30T21:06:22.386Z,14.40
2022-09-30T21:08:50.957Z,14.40
2022-09-30T21:11:19.538Z,14.40
2022-09-30T21:13:50.465Z,14.40
2022-09-30T21:16:20.437Z,14.40
2022-09-30T21:18:48.544Z,14.43
2022-09-30T21:21:17.694Z,14.42
2022-09-30T21:23:47.141Z,14.43
2022-09-30T21:26:16.945Z,14.43
2022-09-30T21:28:49.261Z,14.44
2022-09-30T21:31:19.980Z,14.43
2022-09-30T21:33:51.267Z,14.42
2022-09-30T21:36:21.085Z,14.43
2022-09-30T21:38:50.356Z,14.43
2022-09-30T21:41:19.570Z,14.45
2022-09-30T21:43:47.262Z,14.45
2022-09-30T21:46:16.580Z,14.46
2022-09-30T21:48:45.449Z,14.46
2022-09-30T21:51:13.595Z,14.46
2022-09-30T21:53:41.523Z,14.46
2022-09-30T21:56:11.846Z,14.46
2022-09-30T21:58:39.927Z,14.45
2022-09-30T22:01:08.241Z,14.46
2022-09-30T22:03:38.563Z,14.48
2022-09-30T22:06:08.416Z,14.43
2022-09-30T22:08:40.148Z,14.44
2022-09-30T22:11:11.045Z,14.46
2022-09-30T22:13:40.835Z,14.46
2022-09-30T22:16:09.007Z,14.46
2022-09-30T22:18:36.847Z,14.47
2022-09-30T22:21:05.690Z,14.49
2022-09-30T22:23:33.552Z,14.47
2022-09-30T22:26:07.661Z,14.51
2022-09-30T22:28:36.830Z,14.50
2022-09-30T22:31:11.978Z,14.48
2022-09-30T22:33:56.909Z,14.43
2022-09-30T22:36:42.240Z,14.41
2022-09-30T22:39:11.151Z,14.43
2022-09-30T22:41:39.235Z,14.43
2022-09-30T22:44:08.770Z,14.46
2022-09-30T22:46:36.941Z,14.46
2022-09-30T22:49:04.927Z,14.44
2022-09-30T22:51:33.526Z,14.49
2022-09-30T22:54:01.554Z,14.50
2022-09-30T22:56:29.185Z,14.50
2022-09-30T22:58:56.946Z,14.50
2022-09-30T23:01:27.023Z,14.49
2022-09-30T23:03:54.956Z,14.50
2022-09-30T23:06:24.567Z,14.48
2022-09-30T23:08:54.399Z,14.46
2022-09-30T23:11:23.276Z,14.45
2022-09-30T23:13:58.889Z,14.45
2022-09-30T23:16:28.255Z,14.45
2022-09-30T23:18:56.280Z,14.40
2022-09-30T23:21:23.905Z,14.46
2022-09-30T23:23:51.641Z,14.45
2022-09-30T23:26:20.666Z,14.40
2022-09-30T23:28:48.671Z,14.48
2022-09-30T23:31:17.556Z,14.49
2022-09-30T23:33:48.124Z,14.47
2022-09-30T23:36:16.973Z,14.51
2022-09-30T23:38:44.642Z,14.51
2022-09-30T23:41:13.111Z,14.48
2022-09-30T23:43:48.351Z,14.44
2022-09-30T23:46:17.913Z,14.40
2022-09-30T23:48:47.133Z,14.38
2022-09-30T23:51:15.396Z,14.32
2022-09-30T23:53:43.517Z,14.30
2022-09-30T23:56:13.530Z,14.28
2022-09-30T23:58:41.322Z,14.26
